createdAt,value
2022-11-28T00:01:43.392Z,101277.28
2022-11-28T00:04:11.368Z,101271.19
2022-11-28T00:06:46.940Z,101274.84
2022-11-28T00:09:15.105Z,101278.72
2022-11-28T00:11:44.250Z,101271.97
2022-11-28T00:14:16.134Z,101271.97
2022-11-28T00:16:46.973Z,101281.75
2022-11-28T00:19:14.448Z,101275.63
2022-11-28T00:21:42.024Z,101281.75
2022-11-28T00:24:14.878Z,101277.44
2022-11-28T00:26:48.300Z,101274.97
2022-11-28T00:29:18.490Z,101276.84
2022-11-28T00:31:48.648Z,101273.97
2022-11-28T00:34:16.020Z,101278.03
2022-11-28T00:36:47.750Z,101277.22
2022-11-28T00:39:16.270Z,101271.75
2022-11-28T00:41:43.885Z,101281.16
2022-11-28T00:44:14.007Z,101283.59
2022-11-28T00:46:43.771Z,101277.69
2022-11-28T00:49:10.979Z,101271.94
2022-11-28T00:51:38.455Z,101277.47
2022-11-28T00:54:08.067Z,101272.16
2022-11-28T00:56:42.539Z,101268.72
2022-11-28T00:59:15.123Z,101273.66
2022-11-28T01:01:45.493Z,101262.81
2022-11-28T01:04:15.111Z,101270.34
2022-11-28T01:06:48.167Z,101265.44
2022-11-28T01:09:23.613Z,101266.44
2022-11-28T01:11:53.242Z,101270.06
2022-11-28T01:14:24.097Z,101262.13
2022-11-28T01:16:54.326Z,101264.19
2022-11-28T01:19:23.302Z,101260.75
2022-11-28T01:21:53.612Z,101257.69
2022-11-28T01:24:22.152Z,101260.75
2022-11-28T01:26:52.063Z,101257.63
2022-11-28T01:29:19.868Z,101251.94
2022-11-28T01:31:50.098Z,101252.41
2022-11-28T01:34:17.269Z,101255.69
2022-11-28T01:36:47.557Z,101251.38
2022-11-28T01:39:14.700Z,101252.41
2022-11-28T01:41:41.956Z,101248.28
2022-11-28T01:44:12.094Z,101241.81
2022-11-28T01:46:42.665Z,101246.91
2022-11-28T01:49:17.882Z,101241.00
2022-11-28T01:51:54.054Z,101243.84
2022-11-28T01:54:26.370Z,101240.66
2022-11-28T01:57:16.963Z,101245.94
2022-11-28T02:00:08.701Z,101243.47
2022-11-28T02:02:40.884Z,101231.47
2022-11-28T02:05:12.770Z,101232.84
2022-11-28T02:07:40.267Z,101234.88
2022-11-28T02:10:12.253Z,101227.94
2022-11-28T02:13:13.443Z,101229.22
2022-11-28T02:15:53.051Z,101222.91
2022-11-28T02:18:50.166Z,101227.75
2022-11-28T02:21:50.182Z,101231.53
2022-11-28T02:24:35.819Z,101232.81
2022-11-28T02:27:17.918Z,101232.03
2022-11-28T02:30:06.389Z,101222.31
2022-11-28T02:32:57.857Z,101223.94
2022-11-28T02:35:50.363Z,101221.88
2022-11-28T02:38:34.383Z,101219.44
2022-11-28T02:41:33.843Z,101226.38
2022-11-28T02:44:19.693Z,101222.53
2022-11-28T02:46:58.589Z,101230.66
2022-11-28T02:49:58.921Z,101226.16
2022-11-28T02:53:14.017Z,101226.16
2022-11-28T02:55:43.375Z,101222.25
2022-11-28T02:58:12.320Z,101224.28
2022-11-28T03:00:45.874Z,101225.50
2022-11-28T03:03:21.631Z,101227.78
2022-11-28T03:06:18.917Z,101226.97
2022-11-28T03:09:15.285Z,101229.78
2022-11-28T03:12:03.156Z,101219.00
2022-11-28T03:14:57.223Z,101220.66
2022-11-28T03:18:11.332Z,101219.00
2022-11-28T03:20:44.571Z,101214.91
2022-11-28T03:23:33.492Z,101218.41
2022-11-28T03:26:05.759Z,101202.28
2022-11-28T03:28:45.809Z,101216.59
2022-11-28T03:31:19.878Z,101211.91
2022-11-28T03:33:53.898Z,101213.75
2022-11-28T03:36:27.239Z,101209.84
2022-11-28T03:39:09.097Z,101205.75
2022-11-28T03:41:42.691Z,101200.69
2022-11-28T03:44:33.120Z,101217.78
2022-11-28T03:47:11.601Z,101215.75
2022-11-28T03:49:55.226Z,101212.09
2022-11-28T03:52:40.997Z,101211.28
2022-11-28T03:55:25.959Z,101206.56
2022-11-28T03:58:25.429Z,101211.63
2022-11-28T04:01:26.859Z,101210.66
2022-11-28T04:05:05.015Z,101213.03
2022-11-28T04:08:07.136Z,101211.25
2022-11-28T04:10:37.364Z,101220.66
2022-11-28T04:13:18.350Z,101221.94
2022-11-28T04:16:04.892Z,101215.78
2022-11-28T04:18:54.273Z,101218.44
2022-11-28T04:22:02.419Z,101224.28
2022-11-28T04:24:42.237Z,101218.88
2022-11-28T04:27:20.329Z,101220.72
2022-11-28T04:29:53.499Z,101219.13
2022-11-28T04:32:29.393Z,101217.88
2022-11-28T04:35:05.737Z,101209.06
2022-11-28T04:37:43.732Z,101220.31
2022-11-28T04:40:13.272Z,101211.16
2022-11-28T04:42:52.847Z,101221.84
2022-11-28T04:45:40.559Z,101219.66
2022-11-28T04:48:14.335Z,101219.34
2022-11-28T04:51:11.796Z,101222.94
2022-11-28T04:53:57.359Z,101222.97
2022-11-28T04:56:39.208Z,101221.34
2022-11-28T04:59:10.916Z,101219.78
2022-11-28T05:01:44.124Z,101219.41
2022-11-28T05:04:17.998Z,101223.53
2022-11-28T05:07:01.634Z,101229.03
2022-11-28T05:09:33.243Z,101228.44
2022-11-28T05:12:01.761Z,101229.47
2022-11-28T05:14:29.531Z,101230.78
2022-11-28T05:17:00.971Z,101226.75
2022-11-28T05:19:31.156Z,101232.44
2022-11-28T05:21:59.925Z,101233.16
2022-11-28T05:24:32.320Z,101226.03
2022-11-28T05:27:05.752Z,101224.38
2022-11-28T05:29:36.123Z,101216.19
2022-11-28T05:32:09.882Z,101220.34
2022-11-28T05:34:37.745Z,101222.56
2022-11-28T05:37:11.208Z,101221.75
2022-11-28T05:39:41.926Z,101232.94
2022-11-28T05:42:15.127Z,101226.16
2022-11-28T05:44:48.247Z,101224.94
2022-11-28T05:47:19.942Z,101221.88
2022-11-28T05:49:47.467Z,101227.19
2022-11-28T05:52:18.844Z,101227.63
2022-11-28T05:54:49.385Z,101227.16
2022-11-28T05:57:19.769Z,101221.06
2022-11-28T05:59:53.140Z,101221.88
2022-11-28T06:02:25.964Z,101221.88
2022-11-28T06:04:56.417Z,101224.75
2022-11-28T06:07:31.782Z,101219.84
2022-11-28T06:10:01.458Z,101216.38
2022-11-28T06:12:35.321Z,101224.91
2022-11-28T06:15:06.121Z,101232.41
2022-11-28T06:17:39.238Z,101226.78
2022-11-28T06:20:11.657Z,101230.84
2022-11-28T06:22:47.007Z,101228.47
2022-11-28T06:25:22.520Z,101237.81
2022-11-28T06:27:52.466Z,101241.13
2022-11-28T06:30:20.601Z,101243.75
2022-11-28T06:32:51.605Z,101248.44
2022-11-28T06:35:25.536Z,101246.81
2022-11-28T06:37:57.336Z,101258.25
2022-11-28T06:40:27.572Z,101261.13
2022-11-28T06:42:58.705Z,101255.81
2022-11-28T06:45:29.626Z,101263.56
2022-11-28T06:48:03.472Z,101268.44
2022-11-28T06:50:36.949Z,101257.44
2022-11-28T06:53:07.585Z,101252.72
2022-11-28T06:55:38.627Z,101255.16
2022-11-28T06:58:09.662Z,101248.00
2022-11-28T07:00:37.390Z,101248.38
2022-11-28T07:03:07.808Z,101241.09
2022-11-28T07:05:42.563Z,101244.09
2022-11-28T07:08:20.224Z,101251.72
2022-11-28T07:10:50.601Z,101252.72
2022-11-28T07:13:20.619Z,101247.38
2022-11-28T07:15:51.904Z,101249.63
2022-11-28T07:18:19.124Z,101246.34
2022-11-28T07:20:49.922Z,101249.25
2022-11-28T07:23:19.957Z,101245.56
2022-11-28T07:25:57.929Z,101242.28
2022-11-28T07:28:30.657Z,101237.41
2022-11-28T07:31:04.014Z,101240.47
2022-11-28T07:33:31.812Z,101237.59
2022-11-28T07:36:10.229Z,101237.78
2022-11-28T07:41:39.464Z,101240.09
2022-11-28T07:44:19.074Z,101236.84
2022-11-28T07:46:53.236Z,101241.31
2022-11-28T07:49:39.059Z,101240.94
2022-11-28T07:52:25.245Z,101239.47
2022-11-28T07:55:12.029Z,101238.38
2022-11-28T07:57:57.583Z,101245.97
2022-11-28T08:00:36.990Z,101236.38
2022-11-28T08:03:13.483Z,101237.53
2022-11-28T08:05:53.006Z,101235.94
2022-11-28T08:11:30.183Z,101236.59
2022-11-28T08:14:09.420Z,101236.22
2022-11-28T08:17:01.921Z,101235.41
2022-11-28T08:19:53.309Z,101231.78
2022-11-28T08:22:32.863Z,101234.44
2022-11-28T08:25:14.160Z,101234.00
2022-11-28T08:27:45.159Z,101233.00
2022-11-28T08:30:19.027Z,101228.50
2022-11-28T08:32:50.288Z,101225.41
2022-11-28T08:35:40.458Z,101224.22
2022-11-28T08:38:17.965Z,101219.53
2022-11-28T08:41:01.198Z,101214.44
2022-11-28T08:43:38.497Z,101210.59
2022-11-28T08:46:21.902Z,101211.19
2022-11-28T08:51:48.709Z,101204.88
2022-11-28T08:54:27.104Z,101199.97
2022-11-28T08:57:08.331Z,101204.84
2022-11-28T08:59:47.546Z,101200.44
2022-11-28T09:02:25.642Z,101191.47
2022-11-28T09:05:18.772Z,101194.25
2022-11-28T09:07:49.686Z,101196.28
2022-11-28T09:10:26.832Z,101190.63
2022-11-28T09:13:16.342Z,101194.72
2022-11-28T09:16:08.478Z,101189.41
2022-11-28T09:18:42.753Z,101184.50
2022-11-28T09:21:26.171Z,101186.16
2022-11-28T09:24:06.143Z,101175.75
2022-11-28T09:26:39.970Z,101174.09
2022-11-28T09:29:31.814Z,101175.91
2022-11-28T09:32:09.158Z,101175.97
2022-11-28T09:34:46.138Z,101169.81
2022-11-28T09:37:27.216Z,101167.38
2022-11-28T09:40:15.945Z,101165.44
2022-11-28T09:42:50.338Z,101168.59
2022-11-28T09:45:26.537Z,101171.63
2022-11-28T09:48:45.091Z,101165.75
2022-11-28T09:51:42.725Z,101165.13
2022-11-28T09:54:14.323Z,101164.47
2022-11-28T09:56:47.953Z,101164.78
2022-11-28T10:02:36.771Z,101158.25
2022-11-28T10:08:50.871Z,101148.88
2022-11-28T10:11:36.683Z,101151.94
2022-11-28T10:14:48.665Z,101155.56
2022-11-28T10:21:19.413Z,101149.03
2022-11-28T10:23:52.664Z,101138.41
2022-11-28T10:26:43.302Z,101139.63
2022-11-28T10:29:27.183Z,101135.72
2022-11-28T10:32:16.832Z,101137.97
2022-11-28T10:38:00.356Z,101124.78
2022-11-28T10:41:06.965Z,101131.91
2022-11-28T10:44:02.784Z,101130.69
2022-11-28T10:46:53.934Z,101130.28
2022-11-28T10:49:49.398Z,101128.38
2022-11-28T10:52:32.511Z,101124.34
2022-11-28T10:55:20.444Z,101119.19
2022-11-28T10:58:15.833Z,101118.81
2022-11-28T11:00:48.427Z,101116.91
2022-11-28T11:03:34.021Z,101116.72
2022-11-28T11:06:06.882Z,101106.03
2022-11-28T11:08:48.326Z,101104.38
2022-11-28T11:11:41.147Z,101110.25
2022-11-28T11:14:13.422Z,101105.91
2022-11-28T11:16:56.367Z,101100.78
2022-11-28T11:22:41.690Z,101104.09
2022-11-28T11:25:30.567Z,101107.31
2022-11-28T11:28:06.265Z,101101.63
2022-11-28T11:30:51.588Z,101105.66
2022-11-28T11:33:23.597Z,101111.09
2022-11-28T11:36:03.873Z,101097.97
2022-11-28T11:38:38.096Z,101099.16
2022-11-28T11:41:35.977Z,101095.13
2022-11-28T11:44:19.740Z,101085.28
2022-11-28T11:47:11.681Z,101091.16
2022-11-28T11:50:20.843Z,101087.50
2022-11-28T11:53:21.661Z,101087.16
2022-11-28T11:56:01.661Z,101077.78
2022-11-28T12:01:53.998Z,101080.69
2022-11-28T12:05:29.426Z,101076.47
2022-11-28T12:08:57.898Z,101074.72
2022-11-28T12:11:47.944Z,101074.38
2022-11-28T12:14:53.495Z,101087.16
2022-11-28T12:17:55.795Z,101079.25
2022-11-28T12:20:48.948Z,101076.75
2022-11-28T12:23:44.076Z,101077.47
2022-11-28T12:26:26.046Z,101073.56
2022-11-28T12:29:14.684Z,101089.97
2022-11-28T12:32:16.585Z,101084.53
2022-11-28T12:35:19.538Z,101093.22
2022-11-28T12:38:21.060Z,101088.06
2022-11-28T12:41:05.946Z,101088.13
2022-11-28T12:43:36.186Z,101083.16
2022-11-28T12:46:23.429Z,101080.78
2022-11-28T12:49:17.575Z,101084.16
2022-11-28T12:52:17.293Z,101092.97
2022-11-28T12:55:18.445Z,101091.28
2022-11-28T12:57:50.715Z,101093.72
2022-11-28T13:00:24.312Z,101086.00
2022-11-28T13:03:19.482Z,101085.81
2022-11-28T13:06:07.717Z,101086.00
2022-11-28T13:09:02.893Z,101083.69
2022-11-28T13:11:52.821Z,101083.69
2022-11-28T13:14:32.999Z,101082.75
2022-11-28T13:17:50.904Z,101082.31
2022-11-28T13:20:49.219Z,101088.88
2022-11-28T13:23:33.783Z,101091.03
2022-11-28T13:26:22.958Z,101092.50
2022-11-28T13:29:05.554Z,101089.25
2022-11-28T13:32:19.466Z,101098.34
2022-11-28T13:34:50.571Z,101090.03
2022-11-28T13:40:44.217Z,101097.63
2022-11-28T13:43:33.239Z,101101.88
2022-11-28T13:46:10.441Z,101098.06
2022-11-28T13:51:34.610Z,101082.81
2022-11-28T13:54:17.384Z,101083.69
2022-11-28T13:57:07.767Z,101092.38
2022-11-28T14:00:22.995Z,101102.44
2022-11-28T14:02:59.474Z,101100.94
2022-11-28T14:05:38.166Z,101096.88
2022-11-28T14:08:06.779Z,101104.38
2022-11-28T14:11:05.632Z,101093.94
2022-11-28T14:14:09.385Z,101101.25
2022-11-28T14:17:15.755Z,101096.53
2022-11-28T14:20:02.140Z,101092.69
2022-11-28T14:22:54.166Z,101095.72
2022-11-28T14:25:31.879Z,101100.63
2022-11-28T14:28:05.830Z,101098.38
2022-11-28T14:30:38.152Z,101106.59
2022-11-28T14:33:32.015Z,101099.22
2022-11-28T14:36:21.452Z,101093.66
2022-11-28T14:39:05.704Z,101096.28
2022-11-28T14:41:55.614Z,101094.78
2022-11-28T14:44:44.802Z,101102.75
2022-11-28T14:47:29.329Z,101106.81
2022-11-28T14:50:05.496Z,101096.69
2022-11-28T14:52:41.173Z,101100.50
2022-11-28T14:55:11.243Z,101104.13
2022-11-28T14:57:54.114Z,101100.28
2022-11-28T15:00:48.377Z,101103.53
2022-11-28T15:04:17.064Z,101106.53
2022-11-28T15:06:44.707Z,101104.50
2022-11-28T15:09:22.852Z,101098.41
2022-11-28T15:12:07.766Z,101096.13
2022-11-28T15:14:41.722Z,101092.50
2022-11-28T15:17:20.229Z,101084.09
2022-11-28T15:19:56.761Z,101080.34
2022-11-28T15:22:42.249Z,101087.69
2022-11-28T15:25:31.143Z,101084.97
2022-11-28T15:28:21.834Z,101074.44
2022-11-28T15:30:53.240Z,101076.25
2022-11-28T15:33:25.923Z,101074.66
2022-11-28T15:36:10.273Z,101075.19
2022-11-28T15:38:41.736Z,101072.53
2022-11-28T15:41:09.645Z,101070.91
2022-11-28T15:43:46.261Z,101062.13
2022-11-28T15:46:39.970Z,101066.81
2022-11-28T15:49:32.564Z,101057.94
2022-11-28T15:52:04.600Z,101056.97
2022-11-28T15:54:42.339Z,101053.44
2022-11-28T15:57:22.380Z,101061.75
2022-11-28T16:00:01.225Z,101047.25
2022-11-28T16:02:32.751Z,101049.22
2022-11-28T16:05:14.140Z,101046.94
2022-11-28T16:07:48.821Z,101057.75
2022-11-28T16:10:32.560Z,101047.81
2022-11-28T16:13:14.124Z,101042.75
2022-11-28T16:15:49.887Z,101041.53
2022-11-28T16:18:18.568Z,101048.31
2022-11-28T16:20:49.166Z,101048.09
2022-11-28T16:23:26.171Z,101055.94
2022-11-28T16:26:04.585Z,101057.19
2022-11-28T16:28:39.619Z,101060.44
2022-11-28T16:31:20.485Z,101052.78
2022-11-28T16:33:50.358Z,101059.78
2022-11-28T16:36:31.771Z,101052.34
2022-11-28T16:39:17.087Z,101053.91
2022-11-28T16:42:07.361Z,101057.28
2022-11-28T16:44:35.156Z,101058.47
2022-11-28T16:47:02.750Z,101057.84
2022-11-28T16:49:33.040Z,101044.19
2022-11-28T16:52:39.293Z,101047.78
2022-11-28T16:55:28.730Z,101044.47
2022-11-28T16:58:15.991Z,101056.72
2022-11-28T17:00:47.172Z,101045.22
2022-11-28T17:03:44.089Z,101052.09
2022-11-28T17:06:16.766Z,101048.97
2022-11-28T17:08:47.381Z,101044.88
2022-11-28T17:11:31.023Z,101042.47
2022-11-28T17:14:06.282Z,101041.78
2022-11-28T17:16:42.804Z,101042.63
2022-11-28T17:19:15.202Z,101045.28
2022-11-28T17:21:53.667Z,101034.53
2022-11-28T17:24:37.562Z,101047.53
2022-11-28T17:27:14.501Z,101047.00
2022-11-28T17:29:47.277Z,101044.72
2022-11-28T17:32:20.900Z,101041.25
2022-11-28T17:34:53.891Z,101045.13
2022-11-28T17:37:21.074Z,101041.03
2022-11-28T17:39:48.666Z,101047.53
2022-11-28T17:42:19.169Z,101040.25
2022-11-28T17:44:50.162Z,101042.28
2022-11-28T17:47:17.790Z,101045.28
2022-11-28T17:49:51.253Z,101035.78
2022-11-28T17:52:24.713Z,101036.97
2022-11-28T17:54:54.951Z,101037.78
2022-11-28T17:57:24.765Z,101043.63
2022-11-28T18:00:00.516Z,101042.28
2022-11-28T18:02:33.780Z,101039.66
2022-11-28T18:05:04.276Z,101039.41
2022-11-28T18:07:36.132Z,101044.47
2022-11-28T18:10:11.774Z,101044.47
2022-11-28T18:12:39.689Z,101043.84
2022-11-28T18:15:09.887Z,101042.56
2022-11-28T18:17:39.722Z,101043.09
2022-11-28T18:20:10.734Z,101043.25
2022-11-28T18:22:43.443Z,101041.38
2022-11-28T18:25:13.470Z,101044.19
2022-11-28T18:27:49.282Z,101044.63
2022-11-28T18:30:22.378Z,101038.06
2022-11-28T18:32:53.991Z,101041.16
2022-11-28T18:35:21.451Z,101040.97
2022-11-28T18:37:48.635Z,101037.13
2022-11-28T18:40:25.110Z,101038.66
2022-11-28T18:42:57.898Z,101032.56
2022-11-28T18:45:29.038Z,101039.78
2022-11-28T18:48:02.442Z,101037.56
2022-11-28T18:50:35.480Z,101039.81
2022-11-28T18:53:06.061Z,101043.16
2022-11-28T18:55:37.089Z,101042.72
2022-11-28T18:58:11.414Z,101045.34
2022-11-28T19:00:39.690Z,101041.81
2022-11-28T19:03:19.761Z,101044.41
2022-11-28T19:05:53.126Z,101049.78
2022-11-28T19:08:23.540Z,101046.19
2022-11-28T19:10:53.949Z,101043.50
2022-11-28T19:13:30.930Z,101041.13
2022-11-28T19:16:07.937Z,101051.72
2022-11-28T19:18:40.721Z,101051.91
2022-11-28T19:21:25.457Z,101052.41
2022-11-28T19:24:03.614Z,101061.56
2022-11-28T19:26:32.288Z,101065.53
2022-11-28T19:29:01.013Z,101068.28
2022-11-28T19:31:31.220Z,101063.47
2022-11-28T19:34:07.211Z,101061.88
2022-11-28T19:36:43.231Z,101068.00
2022-11-28T19:39:36.608Z,101066.38
2022-11-28T19:42:13.126Z,101064.22
2022-11-28T19:44:54.116Z,101064.56
2022-11-28T19:47:25.168Z,101063.34
2022-11-28T19:49:56.624Z,101067.69
2022-11-28T19:52:30.174Z,101072.75
2022-11-28T19:55:07.316Z,101064.28
2022-11-28T19:57:43.655Z,101072.25
2022-11-28T20:00:18.315Z,101072.25
2022-11-28T20:02:48.772Z,101070.00
2022-11-28T20:05:21.861Z,101076.97
2022-11-28T20:07:58.184Z,101073.63
2022-11-28T20:10:30.068Z,101069.44
2022-11-28T20:13:03.085Z,101068.72
2022-11-28T20:15:40.474Z,101069.47
2022-11-28T20:18:08.321Z,101069.19
2022-11-28T20:20:42.165Z,101068.66
2022-11-28T20:23:15.884Z,101065.44
2022-11-28T20:25:44.173Z,101062.97
2022-11-28T20:28:20.246Z,101056.75
2022-11-28T20:30:51.103Z,101066.06
2022-11-28T20:33:25.256Z,101063.19
2022-11-28T20:36:03.833Z,101066.03
2022-11-28T20:38:40.934Z,101075.56
2022-11-28T20:41:10.346Z,101074.31
2022-11-28T20:43:47.782Z,101067.25
2022-11-28T20:46:26.082Z,101067.66
2022-11-28T20:48:58.053Z,101073.50
2022-11-28T20:51:30.539Z,101079.34
2022-11-28T20:53:59.356Z,101074.63
2022-11-28T20:56:30.351Z,101082.72
2022-11-28T20:59:02.079Z,101076.22
2022-11-28T21:01:35.554Z,101076.03
2022-11-28T21:04:14.285Z,101074.50
2022-11-28T21:06:42.684Z,101082.78
2022-11-28T21:09:13.346Z,101083.19
2022-11-28T21:11:56.678Z,101086.25
2022-11-28T21:14:26.867Z,101081.16
2022-11-28T21:17:00.851Z,101079.91
2022-11-28T21:19:34.110Z,101081.97
2022-11-28T21:22:07.835Z,101081.66
2022-11-28T21:24:39.073Z,101073.69
2022-11-28T21:27:09.717Z,101071.06
2022-11-28T21:29:43.648Z,101069.41
2022-11-28T21:32:12.372Z,101068.56
2022-11-28T21:34:45.430Z,101071.00
2022-11-28T21:37:18.238Z,101071.66
2022-11-28T21:39:48.445Z,101068.22
2022-11-28T21:42:20.913Z,101069.84
2022-11-28T21:44:51.586Z,101072.91
2022-11-28T21:47:20.063Z,101072.28
2022-11-28T21:49:53.372Z,101062.50
2022-11-28T21:52:24.052Z,101066.78
2022-11-28T21:54:54.486Z,101059.25
2022-11-28T21:57:24.712Z,101054.75
2022-11-28T21:59:54.715Z,101060.06
2022-11-28T22:02:30.834Z,101059.06
2022-11-28T22:05:02.072Z,101057.03
2022-11-28T22:07:29.181Z,101056.00
2022-11-28T22:10:03.316Z,101060.06
2022-11-28T22:12:35.847Z,101054.78
2022-11-28T22:15:05.843Z,101045.44
2022-11-28T22:17:36.910Z,101057.44
2022-11-28T22:20:11.729Z,101047.91
2022-11-28T22:22:47.607Z,101054.22
2022-11-28T22:25:18.221Z,101054.59
2022-11-28T22:27:45.270Z,101065.59
2022-11-28T22:30:18.518Z,101051.56
2022-11-28T22:32:45.676Z,101050.75
2022-11-28T22:35:18.699Z,101049.53
2022-11-28T22:37:53.106Z,101050.75
2022-11-28T22:40:20.756Z,101042.63
2022-11-28T22:42:48.251Z,101045.84
2022-11-28T22:45:15.389Z,101038.13
2022-11-28T22:47:45.249Z,101038.16
2022-11-28T22:50:21.725Z,101040.38
2022-11-28T22:52:54.319Z,101028.41
2022-11-28T22:55:24.593Z,101039.53
2022-11-28T22:57:58.927Z,101027.56
2022-11-28T23:00:29.261Z,101030.22
2022-11-28T23:03:00.178Z,101022.69
2022-11-28T23:05:30.836Z,101028.19
2022-11-28T23:08:01.519Z,101025.34
2022-11-28T23:10:31.368Z,101024.94
2022-11-28T23:12:58.856Z,101018.41
2022-11-28T23:15:28.837Z,101022.31
2022-11-28T23:17:59.783Z,101016.59
2022-11-28T23:20:30.592Z,101014.75
2022-11-28T23:23:07.234Z,101018.22
2022-11-28T23:25:39.246Z,101012.13
2022-11-28T23:28:09.903Z,101024.94
2022-11-28T23:30:37.244Z,101013.94
2022-11-28T23:33:10.542Z,101007.66
2022-11-28T23:35:41.286Z,101011.94
2022-11-28T23:38:11.145Z,101015.38
2022-11-28T23:40:41.420Z,101012.09
2022-11-28T23:43:11.901Z,101017.19
2022-11-28T23:45:39.913Z,101018.63
2022-11-28T23:48:16.196Z,101017.00
2022-11-28T23:50:43.920Z,101025.31
2022-11-28T23:53:18.044Z,101022.69
2022-11-28T23:55:51.000Z,101029.41
2022-11-28T23:58:26.527Z,101027.34
